createdAt,value
2023-03-29T00:00:33.468Z,6.50
2023-03-29T00:02:59.872Z,6.38
2023-03-29T00:05:26.321Z,6.80
2023-03-29T00:07:52.623Z,7.45
2023-03-29T00:10:18.940Z,6.63
2023-03-29T00:12:45.301Z,7.55
2023-03-29T00:15:11.624Z,7.03
2023-03-29T00:17:37.978Z,7.07
2023-03-29T00:20:04.355Z,7.18
2023-03-29T00:22:30.685Z,7.07
2023-03-29T00:24:56.991Z,6.72
2023-03-29T00:27:23.363Z,7.10
2023-03-29T00:29:49.709Z,6.70
2023-03-29T00:32:16.063Z,5.93
2023-03-29T00:34:42.455Z,6.10
2023-03-29T00:37:09.204Z,6.93
2023-03-29T00:39:35.531Z,6.57
2023-03-29T00:42:01.873Z,7.40
2023-03-29T00:44:28.327Z,8.88
2023-03-29T00:46:54.895Z,6.53
2023-03-29T00:49:21.300Z,6.97
2023-03-29T00:51:48.127Z,8.45
2023-03-29T00:54:14.640Z,7.63
2023-03-29T00:56:42.066Z,6.30
2023-03-29T00:59:08.425Z,7.75
2023-03-29T01:01:34.816Z,7.53
2023-03-29T01:04:01.409Z,7.90
2023-03-29T01:06:27.802Z,7.60
2023-03-29T01:08:55.408Z,7.88
2023-03-29T01:11:21.776Z,8.63
2023-03-29T01:13:48.134Z,8.50
2023-03-29T01:16:14.463Z,8.38
2023-03-29T01:18:40.915Z,9.07
2023-03-29T01:21:07.316Z,7.82
2023-03-29T01:23:33.650Z,7.28
2023-03-29T01:26:00.036Z,10.07
2023-03-29T01:28:26.689Z,7.45
2023-03-29T01:30:53.180Z,7.70
2023-03-29T01:33:19.538Z,7.90
2023-03-29T01:35:45.899Z,8.23
2023-03-29T01:38:12.222Z,8.10
2023-03-29T01:40:38.612Z,8.60
2023-03-29T01:43:04.958Z,8.02
2023-03-29T01:45:31.295Z,7.47
2023-03-29T01:47:57.962Z,10.13
2023-03-29T01:50:24.348Z,9.05
2023-03-29T01:52:50.672Z,7.45
2023-03-29T01:55:17.033Z,6.90
2023-03-29T01:57:43.353Z,7.50
2023-03-29T02:00:09.678Z,7.32
2023-03-29T02:02:37.863Z,6.95
2023-03-29T02:05:04.351Z,7.05
2023-03-29T02:07:30.766Z,6.32
2023-03-29T02:09:57.255Z,8.20
2023-03-29T02:12:23.644Z,7.13
2023-03-29T02:14:50.027Z,5.68
2023-03-29T02:17:16.385Z,7.65
2023-03-29T02:19:42.799Z,6.57
2023-03-29T02:22:09.130Z,9.85
2023-03-29T02:24:35.501Z,5.43
2023-03-29T02:27:02.120Z,6.20
2023-03-29T02:29:28.471Z,6.90
2023-03-29T02:31:57.429Z,6.85
2023-03-29T02:34:23.753Z,5.65
2023-03-29T02:36:50.084Z,5.30
2023-03-29T02:39:16.445Z,6.78
2023-03-29T02:41:42.804Z,6.72
2023-03-29T02:44:09.217Z,5.63
2023-03-29T02:46:35.647Z,4.25
2023-03-29T02:49:02.015Z,4.88
2023-03-29T02:51:28.316Z,5.47
2023-03-29T02:53:54.709Z,6.00
2023-03-29T02:56:21.075Z,5.53
2023-03-29T02:58:47.398Z,6.40
2023-03-29T03:01:13.776Z,6.22
2023-03-29T03:03:40.237Z,5.78
2023-03-29T03:06:06.919Z,5.38
2023-03-29T03:08:33.344Z,5.05
2023-03-29T03:10:59.833Z,5.35
2023-03-29T03:13:26.471Z,5.47
2023-03-29T03:15:53.046Z,5.90
2023-03-29T03:18:19.576Z,5.00
2023-03-29T03:20:46.000Z,4.65
2023-03-29T03:23:12.462Z,4.63
2023-03-29T03:25:39.052Z,5.22
2023-03-29T03:28:05.514Z,4.28
2023-03-29T03:30:32.137Z,4.32
2023-03-29T03:33:16.937Z,5.18
2023-03-29T03:36:01.996Z,5.28
2023-03-29T03:38:29.316Z,5.20
2023-03-29T03:40:57.828Z,6.40
2023-03-29T03:43:24.775Z,5.82
2023-03-29T03:45:51.315Z,12.88
2023-03-29T03:48:21.363Z,7.00
2023-03-29T03:50:56.973Z,6.03
2023-03-29T03:53:24.970Z,6.80
2023-03-29T03:56:14.687Z,7.68
2023-03-29T03:58:59.586Z,4.45
2023-03-29T04:01:27.708Z,6.28
2023-03-29T04:04:03.474Z,4.82
2023-03-29T04:06:31.029Z,4.30
2023-03-29T04:09:16.071Z,9.07
2023-03-29T04:11:48.163Z,4.97
2023-03-29T04:14:14.990Z,5.28
2023-03-29T04:16:53.533Z,6.13
2023-03-29T04:19:47.821Z,5.53
2023-03-29T04:22:14.429Z,4.20
2023-03-29T04:24:41.775Z,3.95
2023-03-29T04:27:28.273Z,4.10
2023-03-29T04:29:55.318Z,9.68
2023-03-29T04:32:39.847Z,10.40
2023-03-29T04:35:08.456Z,5.75
2023-03-29T04:37:34.946Z,6.03
2023-03-29T04:40:01.464Z,7.35
2023-03-29T04:42:34.637Z,6.35
2023-03-29T04:45:01.172Z,6.28
2023-03-29T04:47:46.156Z,4.03
2023-03-29T04:50:16.652Z,5.90
2023-03-29T04:52:44.586Z,6.80
2023-03-29T04:55:11.743Z,8.38
2023-03-29T04:57:47.899Z,7.68
2023-03-29T05:00:27.432Z,6.03
2023-03-29T05:02:54.029Z,5.38
2023-03-29T05:05:21.300Z,7.30
2023-03-29T05:07:49.314Z,5.88
2023-03-29T05:10:19.317Z,5.20
2023-03-29T05:12:45.807Z,16.65
2023-03-29T05:15:12.372Z,17.08
2023-03-29T05:17:38.905Z,14.52
2023-03-29T05:20:09.958Z,12.35
2023-03-29T05:22:36.645Z,12.65
2023-03-29T05:25:03.154Z,9.20
2023-03-29T05:27:29.659Z,15.38
2023-03-29T05:30:02.789Z,12.23
2023-03-29T05:32:39.897Z,7.80
2023-03-29T05:35:07.848Z,9.63
2023-03-29T05:37:34.837Z,10.38
2023-03-29T05:40:06.040Z,12.68
2023-03-29T05:42:40.161Z,14.45
2023-03-29T05:45:08.580Z,64.60
2023-03-29T05:47:35.037Z,55.58
2023-03-29T05:50:02.006Z,48.83
2023-03-29T05:52:28.454Z,45.60
2023-03-29T05:54:55.654Z,43.65
2023-03-29T05:57:22.190Z,20.38
2023-03-29T05:59:48.702Z,35.42
2023-03-29T06:02:15.185Z,36.17
2023-03-29T06:04:46.368Z,28.48
2023-03-29T06:07:15.637Z,21.35
2023-03-29T06:09:47.188Z,26.70
2023-03-29T06:12:13.732Z,25.42
2023-03-29T06:14:52.500Z,17.23
2023-03-29T06:17:25.989Z,20.90
2023-03-29T06:19:52.523Z,21.67
2023-03-29T06:22:21.586Z,15.85
2023-03-29T06:24:48.216Z,16.27
2023-03-29T06:27:22.494Z,14.00
2023-03-29T06:29:49.806Z,13.13
2023-03-29T06:32:16.333Z,16.88
2023-03-29T06:34:46.719Z,15.05
2023-03-29T06:37:22.759Z,18.38
2023-03-29T06:39:56.458Z,13.30
2023-03-29T06:42:31.473Z,16.95
2023-03-29T06:45:24.745Z,14.82
2023-03-29T06:47:53.500Z,10.40
2023-03-29T06:50:19.923Z,11.98
2023-03-29T06:52:53.393Z,10.90
2023-03-29T06:55:19.769Z,10.80
2023-03-29T06:57:46.189Z,12.07
2023-03-29T07:00:12.767Z,10.98
2023-03-29T07:02:59.132Z,7.03
2023-03-29T07:05:25.676Z,8.73
2023-03-29T07:07:52.079Z,8.60
2023-03-29T07:10:26.136Z,30.55
2023-03-29T07:13:12.853Z,19.15
2023-03-29T07:15:39.872Z,15.93
2023-03-29T07:18:19.216Z,11.90
2023-03-29T07:20:45.697Z,14.52
2023-03-29T07:23:12.082Z,9.77
2023-03-29T07:25:38.512Z,14.20
2023-03-29T07:28:04.960Z,13.50
2023-03-29T07:30:32.482Z,8.70
2023-03-29T07:33:20.467Z,9.13
2023-03-29T07:35:53.323Z,13.32
2023-03-29T07:38:19.842Z,11.07
2023-03-29T07:40:51.611Z,7.18
2023-03-29T07:43:39.784Z,6.68
2023-03-29T07:46:06.441Z,8.75
2023-03-29T07:48:34.484Z,7.13
2023-03-29T07:51:04.707Z,8.50
2023-03-29T07:53:39.498Z,9.80
2023-03-29T07:56:13.423Z,7.35
2023-03-29T07:59:06.030Z,7.00
2023-03-29T08:01:32.673Z,6.60
2023-03-29T08:04:14.330Z,6.85
2023-03-29T08:07:07.169Z,6.95
2023-03-29T08:09:53.612Z,6.85
2023-03-29T08:12:27.047Z,5.50
2023-03-29T08:14:56.097Z,5.80
2023-03-29T08:17:29.962Z,6.25
2023-03-29T08:19:57.255Z,3.78
2023-03-29T08:22:24.266Z,10.27
2023-03-29T08:25:07.169Z,8.07
2023-03-29T08:27:38.309Z,8.75
2023-03-29T08:30:05.341Z,8.35
2023-03-29T08:32:34.275Z,9.38
2023-03-29T08:35:00.885Z,8.60
2023-03-29T08:37:34.887Z,6.43
2023-03-29T08:40:01.385Z,6.78
2023-03-29T08:42:50.581Z,5.53
2023-03-29T08:45:19.315Z,7.57
2023-03-29T08:47:47.965Z,7.32
2023-03-29T08:50:14.495Z,6.43
2023-03-29T08:52:44.546Z,9.45
2023-03-29T08:55:25.037Z,6.75
2023-03-29T08:58:11.435Z,6.82
2023-03-29T09:00:37.855Z,6.15
2023-03-29T09:03:04.541Z,9.65
2023-03-29T09:05:31.071Z,6.13
2023-03-29T09:08:08.874Z,5.57
2023-03-29T09:10:35.381Z,9.50
2023-03-29T09:13:02.020Z,4.60
2023-03-29T09:15:28.699Z,7.60
2023-03-29T09:18:21.293Z,4.13
2023-03-29T09:20:47.748Z,6.38
2023-03-29T09:23:14.548Z,5.35
2023-03-29T09:26:01.011Z,3.97
2023-03-29T09:28:42.075Z,4.63
2023-03-29T09:31:08.585Z,4.05
2023-03-29T09:33:35.018Z,5.72
2023-03-29T09:36:07.197Z,6.07
2023-03-29T09:38:35.056Z,6.05
2023-03-29T09:41:01.777Z,5.40
2023-03-29T09:43:28.584Z,15.80
2023-03-29T09:45:55.249Z,6.28
2023-03-29T09:48:21.778Z,11.70
2023-03-29T09:50:53.824Z,9.82
2023-03-29T09:53:20.634Z,9.85
2023-03-29T09:56:07.291Z,10.35
2023-03-29T09:58:42.547Z,8.23
2023-03-29T10:01:09.024Z,7.40
2023-03-29T10:03:36.122Z,9.48
2023-03-29T10:06:22.088Z,8.52
2023-03-29T10:08:52.880Z,6.13
2023-03-29T10:11:21.517Z,7.97
2023-03-29T10:13:47.955Z,10.13
2023-03-29T10:16:14.494Z,11.98
2023-03-29T10:18:40.923Z,5.70
2023-03-29T10:21:07.357Z,5.78
2023-03-29T10:23:33.811Z,4.78
2023-03-29T10:26:00.168Z,6.63
2023-03-29T10:28:26.596Z,5.97
2023-03-29T10:30:53.037Z,10.25
2023-03-29T10:33:19.413Z,32.47
2023-03-29T10:35:45.862Z,26.75
2023-03-29T10:38:12.207Z,11.38
2023-03-29T10:40:38.614Z,16.33
2023-03-29T10:43:05.088Z,22.88
2023-03-29T10:45:31.472Z,23.00
2023-03-29T10:47:57.941Z,21.67
2023-03-29T10:50:24.447Z,12.25
2023-03-29T10:52:50.794Z,14.50
2023-03-29T10:55:17.169Z,10.40
2023-03-29T10:57:43.592Z,14.50
2023-03-29T11:00:09.960Z,14.77
2023-03-29T11:02:36.425Z,12.07
2023-03-29T11:05:02.913Z,11.05
2023-03-29T11:07:29.620Z,10.35
2023-03-29T11:09:56.062Z,10.93
2023-03-29T11:12:22.458Z,5.30
2023-03-29T11:14:48.841Z,19.67
2023-03-29T11:17:15.249Z,16.67
2023-03-29T11:19:41.690Z,11.30
2023-03-29T11:22:08.084Z,13.77
2023-03-29T11:24:34.440Z,9.60
2023-03-29T11:27:00.840Z,10.68
2023-03-29T11:29:27.204Z,13.30
2023-03-29T11:31:53.609Z,9.38
2023-03-29T11:34:20.129Z,6.60
2023-03-29T11:36:46.527Z,10.00
2023-03-29T11:39:12.909Z,9.57
2023-03-29T11:41:39.372Z,11.15
2023-03-29T11:44:05.748Z,7.88
2023-03-29T11:46:32.208Z,6.65
2023-03-29T11:48:58.742Z,7.13
2023-03-29T11:51:25.117Z,7.80
2023-03-29T11:53:51.479Z,7.35
2023-03-29T11:56:17.939Z,8.90
2023-03-29T11:58:44.332Z,6.22
2023-03-29T12:01:10.708Z,6.40
2023-03-29T12:03:37.279Z,13.25
2023-03-29T12:06:03.723Z,8.82
2023-03-29T12:08:30.220Z,6.32
2023-03-29T12:10:56.783Z,14.50
2023-03-29T12:13:23.186Z,17.58
2023-03-29T12:15:49.583Z,9.45
2023-03-29T12:18:15.997Z,19.13
2023-03-29T12:20:42.496Z,11.02
2023-03-29T12:23:11.611Z,46.60
2023-03-29T12:25:38.074Z,21.65
2023-03-29T12:28:04.483Z,27.05
2023-03-29T12:30:32.524Z,14.63
2023-03-29T12:33:00.363Z,26.52
2023-03-29T12:35:45.715Z,30.42
2023-03-29T12:38:31.040Z,25.52
2023-03-29T12:41:16.322Z,22.80
2023-03-29T12:44:01.750Z,18.52
2023-03-29T12:47:03.463Z,15.77
2023-03-29T12:49:29.951Z,11.45
2023-03-29T12:51:56.328Z,10.48
2023-03-29T12:54:22.708Z,12.40
2023-03-29T12:56:49.256Z,15.85
2023-03-29T12:59:15.655Z,13.02
2023-03-29T13:01:42.102Z,13.23
2023-03-29T13:04:08.542Z,9.73
2023-03-29T13:06:34.901Z,10.25
2023-03-29T13:09:01.265Z,11.27
2023-03-29T13:11:27.663Z,8.50
2023-03-29T13:13:54.053Z,7.55
2023-03-29T13:16:20.454Z,7.30
2023-03-29T13:18:47.022Z,6.05
2023-03-29T13:21:13.421Z,8.05
2023-03-29T13:23:39.791Z,9.13
2023-03-29T13:26:06.205Z,8.00
2023-03-29T13:28:32.570Z,6.20
2023-03-29T13:30:58.979Z,8.38
2023-03-29T13:33:25.378Z,7.35
2023-03-29T13:35:51.779Z,7.28
2023-03-29T13:38:18.174Z,7.82
2023-03-29T13:40:44.583Z,9.18
2023-03-29T13:43:10.942Z,8.50
2023-03-29T13:45:37.301Z,6.47
2023-03-29T13:48:05.383Z,6.78
2023-03-29T13:50:32.273Z,9.65
2023-03-29T13:52:58.642Z,5.28
2023-03-29T13:55:24.963Z,6.60
2023-03-29T13:57:51.283Z,5.55
2023-03-29T14:00:17.632Z,4.82
2023-03-29T14:02:45.077Z,4.90
2023-03-29T14:05:12.488Z,5.32
2023-03-29T14:07:38.817Z,5.68
2023-03-29T14:10:05.192Z,6.32
2023-03-29T14:12:31.603Z,4.93
2023-03-29T14:14:59.510Z,4.55
2023-03-29T14:17:26.042Z,3.42
2023-03-29T14:19:52.386Z,5.97
2023-03-29T14:22:18.690Z,4.30
2023-03-29T14:24:45.075Z,4.88
2023-03-29T14:27:11.399Z,2.58
2023-03-29T14:29:37.764Z,3.75
2023-03-29T14:32:04.354Z,4.25
2023-03-29T14:34:30.848Z,4.40
2023-03-29T14:36:57.360Z,5.15
2023-03-29T14:39:23.990Z,3.47
2023-03-29T14:41:50.513Z,4.00
2023-03-29T14:44:16.978Z,3.50
2023-03-29T14:46:43.572Z,4.78
2023-03-29T14:49:10.168Z,4.93
2023-03-29T14:51:36.552Z,5.97
2023-03-29T14:54:02.901Z,4.10
2023-03-29T14:56:29.235Z,4.30
2023-03-29T14:58:55.586Z,4.75
2023-03-29T15:01:21.960Z,3.67
2023-03-29T15:03:48.341Z,3.55
2023-03-29T15:06:14.742Z,3.03
2023-03-29T15:08:45.814Z,4.13
2023-03-29T15:11:17.455Z,3.13
2023-03-29T15:13:43.828Z,3.55
2023-03-29T15:16:10.252Z,3.33
2023-03-29T15:18:36.725Z,5.13
2023-03-29T15:21:03.118Z,3.40
2023-03-29T15:23:29.445Z,4.13
2023-03-29T15:25:55.780Z,4.18
2023-03-29T15:28:22.218Z,4.28
2023-03-29T15:30:57.364Z,3.53
2023-03-29T15:33:31.433Z,3.72
2023-03-29T15:35:57.857Z,3.55
2023-03-29T15:38:33.180Z,2.65
2023-03-29T15:41:07.319Z,3.65
2023-03-29T15:43:33.716Z,3.20
2023-03-29T15:46:00.256Z,2.33
2023-03-29T15:48:26.744Z,2.92
2023-03-29T15:50:53.053Z,2.90
2023-03-29T15:53:19.380Z,2.90
2023-03-29T15:55:45.772Z,2.20
2023-03-29T15:58:12.319Z,2.50
2023-03-29T16:00:38.933Z,2.70
2023-03-29T16:03:05.461Z,2.92
2023-03-29T16:05:31.839Z,2.53
2023-03-29T16:07:58.153Z,2.35
2023-03-29T16:10:24.526Z,2.80
2023-03-29T16:12:50.898Z,2.53
2023-03-29T16:15:17.293Z,3.45
2023-03-29T16:17:43.859Z,2.55
2023-03-29T16:20:10.259Z,3.03
2023-03-29T16:22:36.569Z,3.22
2023-03-29T16:25:02.974Z,3.83
2023-03-29T16:27:29.364Z,2.50
2023-03-29T16:29:55.786Z,1.80
2023-03-29T16:32:22.362Z,3.15
2023-03-29T16:34:48.828Z,2.88
2023-03-29T16:37:15.135Z,3.35
2023-03-29T16:39:41.505Z,2.38
2023-03-29T16:42:07.838Z,2.88
2023-03-29T16:44:34.165Z,3.05
2023-03-29T16:47:00.742Z,2.88
2023-03-29T16:49:27.149Z,1.88
2023-03-29T16:51:53.489Z,2.60
2023-03-29T16:54:19.878Z,2.78
2023-03-29T16:56:46.254Z,2.60
2023-03-29T16:59:12.589Z,2.90
2023-03-29T17:01:39.025Z,2.55
2023-03-29T17:04:05.523Z,2.45
2023-03-29T17:06:31.888Z,3.33
2023-03-29T17:08:58.300Z,2.65
2023-03-29T17:11:24.678Z,3.05
2023-03-29T17:13:51.021Z,3.70
2023-03-29T17:16:17.506Z,2.70
2023-03-29T17:18:43.913Z,2.30
2023-03-29T17:21:10.279Z,2.20
2023-03-29T17:23:36.661Z,2.70
2023-03-29T17:26:03.164Z,2.22
2023-03-29T17:28:29.571Z,2.05
2023-03-29T17:30:56.067Z,3.08
2023-03-29T17:33:22.911Z,2.60
2023-03-29T17:35:49.381Z,2.30
2023-03-29T17:38:15.822Z,3.83
2023-03-29T17:40:42.255Z,3.67
2023-03-29T17:43:08.597Z,3.83
2023-03-29T17:45:35.040Z,3.10
2023-03-29T17:48:02.388Z,1.92
2023-03-29T17:50:30.522Z,2.10
2023-03-29T17:52:56.925Z,2.72
2023-03-29T17:55:23.252Z,2.67
2023-03-29T17:57:49.603Z,2.28
2023-03-29T18:00:16.002Z,2.80
2023-03-29T18:02:42.448Z,3.08
2023-03-29T18:05:08.848Z,3.10
2023-03-29T18:07:35.276Z,3.53
2023-03-29T18:10:01.589Z,4.22
2023-03-29T18:12:27.903Z,3.22
2023-03-29T18:14:54.345Z,3.40
2023-03-29T18:17:20.671Z,4.10
2023-03-29T18:19:46.984Z,3.05
2023-03-29T18:22:13.397Z,2.80
2023-03-29T18:24:39.719Z,2.55
2023-03-29T18:27:06.019Z,3.17
2023-03-29T18:29:32.457Z,3.38
2023-03-29T18:31:58.857Z,2.95
2023-03-29T18:34:25.210Z,2.58
2023-03-29T18:36:51.724Z,2.47
2023-03-29T18:39:18.056Z,3.88
2023-03-29T18:41:44.378Z,4.32
2023-03-29T18:44:10.797Z,3.22
2023-03-29T18:46:37.314Z,2.88
2023-03-29T18:49:03.751Z,3.38
2023-03-29T18:51:30.158Z,2.83
2023-03-29T18:53:56.494Z,3.22
2023-03-29T18:56:22.867Z,3.53
2023-03-29T18:58:49.332Z,2.45
2023-03-29T19:01:15.715Z,2.85
2023-03-29T19:03:42.231Z,3.22
2023-03-29T19:06:08.797Z,3.10
2023-03-29T19:08:35.148Z,3.28
2023-03-29T19:11:01.471Z,2.53
2023-03-29T19:13:27.870Z,2.90
2023-03-29T19:15:54.306Z,2.67
2023-03-29T19:18:20.660Z,3.35
2023-03-29T19:20:47.022Z,3.33
2023-03-29T19:23:13.362Z,2.63
2023-03-29T19:25:39.721Z,3.20
2023-03-29T19:28:06.081Z,2.83
2023-03-29T19:30:32.442Z,3.05
2023-03-29T19:32:58.861Z,2.90
2023-03-29T19:35:25.390Z,3.80
2023-03-29T19:37:51.748Z,3.13
2023-03-29T19:40:18.081Z,2.95
2023-03-29T19:42:44.447Z,3.20
2023-03-29T19:45:10.785Z,3.33
2023-03-29T19:47:37.191Z,3.90
2023-03-29T19:50:03.651Z,3.72
2023-03-29T19:52:29.998Z,2.85
2023-03-29T19:54:56.334Z,3.42
2023-03-29T19:57:22.866Z,3.90
2023-03-29T19:59:49.219Z,3.40
2023-03-29T20:02:15.560Z,3.05
2023-03-29T20:04:42.005Z,3.15
2023-03-29T20:07:08.352Z,3.20
2023-03-29T20:09:34.695Z,3.38
2023-03-29T20:12:01.063Z,3.40
2023-03-29T20:14:27.420Z,3.10
2023-03-29T20:16:54.202Z,3.58
2023-03-29T20:19:20.762Z,3.13
2023-03-29T20:21:47.079Z,2.85
2023-03-29T20:24:13.392Z,3.10
2023-03-29T20:26:39.777Z,2.75
2023-03-29T20:29:06.128Z,3.72
2023-03-29T20:31:32.492Z,4.25
2023-03-29T20:33:58.897Z,3.75
2023-03-29T20:36:25.347Z,3.17
2023-03-29T20:38:51.752Z,3.22
2023-03-29T20:41:18.125Z,3.63
2023-03-29T20:43:44.462Z,2.67
2023-03-29T20:46:10.891Z,3.40
2023-03-29T20:48:37.293Z,3.00
2023-03-29T20:51:03.852Z,3.55
2023-03-29T20:53:30.378Z,3.20
2023-03-29T20:55:56.769Z,2.80
2023-03-29T20:58:23.091Z,3.72
2023-03-29T21:00:49.429Z,3.17
2023-03-29T21:03:15.933Z,3.65
2023-03-29T21:05:42.390Z,3.10
2023-03-29T21:08:08.705Z,2.38
2023-03-29T21:10:35.076Z,2.70
2023-03-29T21:13:01.427Z,4.07
2023-03-29T21:15:27.774Z,2.90
2023-03-29T21:17:54.177Z,3.00
2023-03-29T21:20:20.512Z,2.95
2023-03-29T21:22:46.832Z,2.70
2023-03-29T21:25:13.188Z,3.40
2023-03-29T21:27:39.494Z,2.47
2023-03-29T21:30:05.830Z,2.88
2023-03-29T21:32:32.226Z,2.78
2023-03-29T21:34:58.558Z,2.90
2023-03-29T21:37:24.866Z,2.65
2023-03-29T21:39:51.230Z,3.15
2023-03-29T21:42:17.554Z,3.20
2023-03-29T21:44:43.927Z,3.78
2023-03-29T21:47:10.339Z,2.78
2023-03-29T21:49:36.644Z,2.63
2023-03-29T21:52:02.971Z,3.67
2023-03-29T21:54:29.335Z,2.78
2023-03-29T21:56:55.681Z,3.00
2023-03-29T21:59:22.097Z,2.63
2023-03-29T22:01:48.452Z,3.20
2023-03-29T22:04:25.589Z,3.83
2023-03-29T22:06:59.855Z,2.65
2023-03-29T22:09:26.209Z,3.13
2023-03-29T22:11:52.541Z,2.42
2023-03-29T22:14:18.926Z,3.28
2023-03-29T22:16:45.274Z,3.45
2023-03-29T22:19:11.603Z,3.00
2023-03-29T22:21:38.009Z,2.85
2023-03-29T22:24:04.375Z,2.85
2023-03-29T22:26:30.700Z,3.10
2023-03-29T22:28:57.095Z,3.15
2023-03-29T22:31:23.460Z,3.05
2023-03-29T22:33:49.838Z,2.80
2023-03-29T22:36:16.502Z,4.28
2023-03-29T22:38:42.958Z,2.65
2023-03-29T22:41:09.288Z,3.00
2023-03-29T22:43:35.644Z,3.03
2023-03-29T22:46:01.982Z,3.22
2023-03-29T22:48:28.339Z,2.53
2023-03-29T22:50:54.708Z,2.60
2023-03-29T22:53:21.022Z,2.67
2023-03-29T22:55:47.354Z,3.33
2023-03-29T22:58:13.715Z,3.47
2023-03-29T23:00:40.055Z,2.42
2023-03-29T23:03:06.400Z,3.13
2023-03-29T23:05:32.782Z,2.40
2023-03-29T23:07:59.101Z,2.50
2023-03-29T23:10:25.451Z,2.78
2023-03-29T23:12:51.923Z,2.92
2023-03-29T23:15:18.277Z,3.03
2023-03-29T23:17:44.649Z,2.95
2023-03-29T23:20:11.060Z,3.28
2023-03-29T23:22:37.408Z,3.00
2023-03-29T23:25:03.772Z,3.03
2023-03-29T23:27:30.126Z,3.10
2023-03-29T23:29:56.460Z,2.97
2023-03-29T23:32:22.792Z,3.50
2023-03-29T23:34:49.237Z,2.95
2023-03-29T23:37:15.551Z,2.50
2023-03-29T23:39:41.874Z,2.78
2023-03-29T23:42:08.252Z,2.67
2023-03-29T23:44:34.635Z,2.88
2023-03-29T23:47:01.105Z,2.85
2023-03-29T23:49:27.586Z,3.53
2023-03-29T23:51:54.066Z,2.75
2023-03-29T23:54:20.440Z,3.70
2023-03-29T23:56:46.848Z,3.67
2023-03-29T23:59:13.213Z,2.90
